sensor_id;sensor_type;location;lat;lon;timestamp;P1;durP1;ratioP1;P2;durP2;ratioP2
15254;SDS011;7730;49.610;11.136;2022-09-12T00:00:04;7.50;;;4.00;;
15254;SDS011;7730;49.610;11.136;2022-09-12T00:02:32;8.07;;;3.80;;
15254;SDS011;7730;49.610;11.136;2022-09-12T00:04:59;9.15;;;3.83;;
15254;SDS011;7730;49.610;11.136;2022-09-12T00:07:26;7.00;;;3.83;;
15254;SDS011;7730;49.610;11.136;2022-09-12T00:09:53;7.03;;;3.28;;
15254;SDS011;7730;49.610;11.136;2022-09-12T00:12:21;6.45;;;3.80;;
15254;SDS011;7730;49.610;11.136;2022-09-12T00:14:48;9.07;;;3.95;;
15254;SDS011;7730;49.610;11.136;2022-09-12T00:17:15;6.93;;;3.40;;
15254;SDS011;7730;49.610;11.136;2022-09-12T00:19:42;6.20;;;3.53;;
15254;SDS011;7730;49.610;11.136;2022-09-12T00:22:09;8.15;;;3.50;;
15254;SDS011;7730;49.610;11.136;2022-09-12T00:24:36;6.93;;;3.28;;
15254;SDS011;7730;49.610;11.136;2022-09-12T00:27:04;7.40;;;3.50;;
15254;SDS011;7730;49.610;11.136;2022-09-12T00:29:33;5.40;;;3.00;;
15254;SDS011;7730;49.610;11.136;2022-09-12T00:32:00;6.93;;;3.33;;
15254;SDS011;7730;49.610;11.136;2022-09-12T00:34:27;6.35;;;3.28;;
15254;SDS011;7730;49.610;11.136;2022-09-12T00:36:54;7.38;;;3.17;;
15254;SDS011;7730;49.610;11.136;2022-09-12T00:39:21;5.68;;;3.22;;
15254;SDS011;7730;49.610;11.136;2022-09-12T00:41:48;5.85;;;3.10;;
15254;SDS011;7730;49.610;11.136;2022-09-12T00:47:03;5.60;;;3.30;;
15254;SDS011;7730;49.610;11.136;2022-09-12T00:49:32;7.20;;;3.28;;
15254;SDS011;7730;49.610;11.136;2022-09-12T00:52:02;7.38;;;3.40;;
15254;SDS011;7730;49.610;11.136;2022-09-12T00:54:30;8.23;;;3.60;;
15254;SDS011;7730;49.610;11.136;2022-09-12T00:56:59;6.40;;;3.20;;
15254;SDS011;7730;49.610;11.136;2022-09-12T00:59:28;7.25;;;3.17;;
15254;SDS011;7730;49.610;11.136;2022-09-12T01:01:55;6.57;;;3.13;;
15254;SDS011;7730;49.610;11.136;2022-09-12T01:04:24;7.45;;;3.03;;
15254;SDS011;7730;49.610;11.136;2022-09-12T01:06:52;5.72;;;3.00;;
15254;SDS011;7730;49.610;11.136;2022-09-12T01:09:21;5.95;;;2.92;;
15254;SDS011;7730;49.610;11.136;2022-09-12T01:11:49;5.50;;;3.00;;
15254;SDS011;7730;49.610;11.136;2022-09-12T01:14:17;7.85;;;3.33;;
15254;SDS011;7730;49.610;11.136;2022-09-12T01:16:44;6.15;;;3.40;;
15254;SDS011;7730;49.610;11.136;2022-09-12T01:19:17;6.85;;;3.70;;
15254;SDS011;7730;49.610;11.136;2022-09-12T01:21:55;6.38;;;3.80;;
15254;SDS011;7730;49.610;11.136;2022-09-12T01:35:34;5.90;;;3.40;;
15254;SDS011;7730;49.610;11.136;2022-09-12T01:38:07;6.50;;;3.55;;
15254;SDS011;7730;49.610;11.136;2022-09-12T01:40:39;7.50;;;3.55;;
15254;SDS011;7730;49.610;11.136;2022-09-12T01:43:15;6.10;;;3.30;;
15254;SDS011;7730;49.610;11.136;2022-09-12T01:45:45;6.47;;;3.28;;
15254;SDS011;7730;49.610;11.136;2022-09-12T01:48:13;5.20;;;3.20;;
15254;SDS011;7730;49.610;11.136;2022-09-12T01:50:45;4.82;;;3.10;;
15254;SDS011;7730;49.610;11.136;2022-09-12T01:53:14;6.70;;;3.10;;
15254;SDS011;7730;49.610;11.136;2022-09-12T01:55:44;5.57;;;3.05;;
15254;SDS011;7730;49.610;11.136;2022-09-12T01:58:13;7.80;;;3.08;;
15254;SDS011;7730;49.610;11.136;2022-09-12T02:00:43;7.18;;;3.25;;
15254;SDS011;7730;49.610;11.136;2022-09-12T02:03:13;5.20;;;2.97;;
15254;SDS011;7730;49.610;11.136;2022-09-12T02:05:41;8.80;;;3.28;;
15254;SDS011;7730;49.610;11.136;2022-09-12T02:08:12;7.03;;;3.35;;
15254;SDS011;7730;49.610;11.136;2022-09-12T02:10:41;5.22;;;3.20;;
15254;SDS011;7730;49.610;11.136;2022-09-12T02:13:10;5.68;;;3.20;;
15254;SDS011;7730;49.610;11.136;2022-09-12T02:15:39;6.82;;;3.15;;
15254;SDS011;7730;49.610;11.136;2022-09-12T02:18:08;6.30;;;3.10;;
15254;SDS011;7730;49.610;11.136;2022-09-12T02:20:38;5.20;;;3.10;;
15254;SDS011;7730;49.610;11.136;2022-09-12T02:23:07;6.05;;;3.38;;
15254;SDS011;7730;49.610;11.136;2022-09-12T02:25:39;5.45;;;3.15;;
15254;SDS011;7730;49.610;11.136;2022-09-12T02:28:07;5.03;;;3.05;;
15254;SDS011;7730;49.610;11.136;2022-09-12T02:30:36;5.95;;;3.00;;
15254;SDS011;7730;49.610;11.136;2022-09-12T02:33:06;5.78;;;3.20;;
15254;SDS011;7730;49.610;11.136;2022-09-12T02:35:35;6.63;;;3.20;;
15254;SDS011;7730;49.610;11.136;2022-09-12T02:38:04;5.18;;;3.08;;
15254;SDS011;7730;49.610;11.136;2022-09-12T02:40:33;6.78;;;3.10;;
15254;SDS011;7730;49.610;11.136;2022-09-12T02:43:02;5.28;;;3.17;;
15254;SDS011;7730;49.610;11.136;2022-09-12T02:45:30;6.43;;;3.10;;
15254;SDS011;7730;49.610;11.136;2022-09-12T02:47:59;6.85;;;3.00;;
15254;SDS011;7730;49.610;11.136;2022-09-12T02:50:28;6.45;;;3.00;;
15254;SDS011;7730;49.610;11.136;2022-09-12T02:52:55;5.80;;;3.05;;
15254;SDS011;7730;49.610;11.136;2022-09-12T02:55:26;4.45;;;2.72;;
15254;SDS011;7730;49.610;11.136;2022-09-12T02:57:54;5.28;;;3.00;;
15254;SDS011;7730;49.610;11.136;2022-09-12T03:00:22;4.60;;;2.97;;
15254;SDS011;7730;49.610;11.136;2022-09-12T03:02:57;5.28;;;3.00;;
15254;SDS011;7730;49.610;11.136;2022-09-12T03:05:28;5.90;;;3.20;;
15254;SDS011;7730;49.610;11.136;2022-09-12T03:08:11;5.28;;;3.20;;
15254;SDS011;7730;49.610;11.136;2022-09-12T03:10:41;4.80;;;3.20;;
15254;SDS011;7730;49.610;11.136;2022-09-12T03:13:15;5.93;;;3.10;;
15254;SDS011;7730;49.610;11.136;2022-09-12T03:15:48;6.15;;;3.10;;
15254;SDS011;7730;49.610;11.136;2022-09-12T03:18:20;5.85;;;2.97;;
15254;SDS011;7730;49.610;11.136;2022-09-12T03:20:52;5.25;;;3.03;;
15254;SDS011;7730;49.610;11.136;2022-09-12T03:23:23;8.05;;;3.30;;
15254;SDS011;7730;49.610;11.136;2022-09-12T03:25:52;11.80;;;3.00;;
15254;SDS011;7730;49.610;11.136;2022-09-12T03:28:21;9.27;;;2.70;;
15254;SDS011;7730;49.610;11.136;2022-09-12T03:30:50;6.55;;;2.65;;
15254;SDS011;7730;49.610;11.136;2022-09-12T03:33:20;16.70;;;2.80;;
15254;SDS011;7730;49.610;11.136;2022-09-12T03:35:47;19.83;;;3.08;;
15254;SDS011;7730;49.610;11.136;2022-09-12T03:38:15;19.83;;;3.15;;
15254;SDS011;7730;49.610;11.136;2022-09-12T03:40:42;15.18;;;2.80;;
15254;SDS011;7730;49.610;11.136;2022-09-12T03:43:10;10.82;;;2.45;;
15254;SDS011;7730;49.610;11.136;2022-09-12T03:45:37;5.05;;;2.40;;
15254;SDS011;7730;49.610;11.136;2022-09-12T03:48:06;17.80;;;2.80;;
15254;SDS011;7730;49.610;11.136;2022-09-12T03:50:33;8.88;;;2.47;;
15254;SDS011;7730;49.610;11.136;2022-09-12T03:53:00;6.78;;;2.53;;
15254;SDS011;7730;49.610;11.136;2022-09-12T03:55:27;6.93;;;2.33;;
15254;SDS011;7730;49.610;11.136;2022-09-12T03:57:55;6.78;;;2.70;;
15254;SDS011;7730;49.610;11.136;2022-09-12T04:00:22;7.18;;;2.90;;
15254;SDS011;7730;49.610;11.136;2022-09-12T04:02:52;5.57;;;2.92;;
15254;SDS011;7730;49.610;11.136;2022-09-12T04:05:20;5.40;;;3.20;;
15254;SDS011;7730;49.610;11.136;2022-09-12T04:07:47;7.15;;;3.20;;
15254;SDS011;7730;49.610;11.136;2022-09-12T04:10:14;5.93;;;3.05;;
15254;SDS011;7730;49.610;11.136;2022-09-12T04:12:41;8.18;;;3.50;;
15254;SDS011;7730;49.610;11.136;2022-09-12T04:15:08;5.78;;;3.00;;
15254;SDS011;7730;49.610;11.136;2022-09-12T04:17:36;5.28;;;3.10;;
15254;SDS011;7730;49.610;11.136;2022-09-12T04:20:03;5.40;;;3.20;;
15254;SDS011;7730;49.610;11.136;2022-09-12T04:22:32;7.53;;;3.67;;
15254;SDS011;7730;49.610;11.136;2022-09-12T04:24:59;7.55;;;3.40;;
15254;SDS011;7730;49.610;11.136;2022-09-12T04:27:26;5.88;;;3.40;;
15254;SDS011;7730;49.610;11.136;2022-09-12T04:29:53;7.35;;;3.70;;
15254;SDS011;7730;49.610;11.136;2022-09-12T04:32:20;4.60;;;3.03;;
15254;SDS011;7730;49.610;11.136;2022-09-12T04:34:47;5.53;;;3.20;;
15254;SDS011;7730;49.610;11.136;2022-09-12T04:37:14;6.80;;;3.40;;
15254;SDS011;7730;49.610;11.136;2022-09-12T04:39:42;8.38;;;3.40;;
15254;SDS011;7730;49.610;11.136;2022-09-12T04:42:09;6.78;;;3.08;;
15254;SDS011;7730;49.610;11.136;2022-09-12T04:44:36;5.38;;;3.33;;
15254;SDS011;7730;49.610;11.136;2022-09-12T04:47:03;5.50;;;2.67;;
15254;SDS011;7730;49.610;11.136;2022-09-12T04:49:30;5.28;;;2.90;;
15254;SDS011;7730;49.610;11.136;2022-09-12T04:51:57;5.38;;;2.92;;
15254;SDS011;7730;49.610;11.136;2022-09-12T04:54:24;7.63;;;3.00;;
15254;SDS011;7730;49.610;11.136;2022-09-12T04:56:53;6.50;;;2.92;;
15254;SDS011;7730;49.610;11.136;2022-09-12T04:59:20;5.75;;;2.78;;
15254;SDS011;7730;49.610;11.136;2022-09-12T05:01:47;6.07;;;2.92;;
15254;SDS011;7730;49.610;11.136;2022-09-12T05:04:15;6.63;;;3.10;;
15254;SDS011;7730;49.610;11.136;2022-09-12T05:06:42;5.80;;;3.47;;
15254;SDS011;7730;49.610;11.136;2022-09-12T05:09:11;9.05;;;3.38;;
15254;SDS011;7730;49.610;11.136;2022-09-12T05:11:39;8.10;;;3.80;;
15254;SDS011;7730;49.610;11.136;2022-09-12T05:14:09;6.30;;;3.40;;
15254;SDS011;7730;49.610;11.136;2022-09-12T05:16:36;6.47;;;3.80;;
15254;SDS011;7730;49.610;11.136;2022-09-12T05:19:03;7.90;;;4.25;;
15254;SDS011;7730;49.610;11.136;2022-09-12T05:21:30;8.50;;;3.80;;
15254;SDS011;7730;49.610;11.136;2022-09-12T05:23:57;5.63;;;3.20;;
15254;SDS011;7730;49.610;11.136;2022-09-12T05:26:25;7.43;;;3.60;;
15254;SDS011;7730;49.610;11.136;2022-09-12T05:28:52;11.30;;;3.88;;
15254;SDS011;7730;49.610;11.136;2022-09-12T05:31:22;9.05;;;3.70;;
15254;SDS011;7730;49.610;11.136;2022-09-12T05:33:50;9.18;;;3.60;;
15254;SDS011;7730;49.610;11.136;2022-09-12T05:36:18;8.70;;;3.72;;
15254;SDS011;7730;49.610;11.136;2022-09-12T05:38:45;9.23;;;4.10;;
15254;SDS011;7730;49.610;11.136;2022-09-12T05:41:13;8.38;;;3.95;;
15254;SDS011;7730;49.610;11.136;2022-09-12T05:43:40;10.50;;;5.35;;
15254;SDS011;7730;49.610;11.136;2022-09-12T05:46:08;11.30;;;4.18;;
15254;SDS011;7730;49.610;11.136;2022-09-12T05:48:38;9.13;;;4.30;;
15254;SDS011;7730;49.610;11.136;2022-09-12T05:51:06;13.07;;;4.30;;
15254;SDS011;7730;49.610;11.136;2022-09-12T05:53:34;11.60;;;4.25;;
15254;SDS011;7730;49.610;11.136;2022-09-12T05:56:05;13.05;;;4.10;;
15254;SDS011;7730;49.610;11.136;2022-09-12T05:58:33;15.25;;;4.00;;
15254;SDS011;7730;49.610;11.136;2022-09-12T06:01:00;14.60;;;4.00;;
15254;SDS011;7730;49.610;11.136;2022-09-12T06:03:28;15.05;;;3.80;;
15254;SDS011;7730;49.610;11.136;2022-09-12T06:05:56;14.63;;;4.10;;
15254;SDS011;7730;49.610;11.136;2022-09-12T06:08:23;21.98;;;4.78;;
15254;SDS011;7730;49.610;11.136;2022-09-12T06:10:50;10.77;;;4.10;;
15254;SDS011;7730;49.610;11.136;2022-09-12T06:13:17;12.13;;;4.00;;
15254;SDS011;7730;49.610;11.136;2022-09-12T06:15:44;8.77;;;4.10;;
15254;SDS011;7730;49.610;11.136;2022-09-12T06:18:11;7.78;;;3.75;;
15254;SDS011;7730;49.610;11.136;2022-09-12T06:20:38;8.68;;;4.00;;
15254;SDS011;7730;49.610;11.136;2022-09-12T06:23:07;7.22;;;3.92;;
15254;SDS011;7730;49.610;11.136;2022-09-12T06:25:34;7.63;;;3.83;;
15254;SDS011;7730;49.610;11.136;2022-09-12T06:28:01;8.60;;;4.00;;
15254;SDS011;7730;49.610;11.136;2022-09-12T06:30:28;9.77;;;3.80;;
15254;SDS011;7730;49.610;11.136;2022-09-12T06:32:55;8.63;;;3.97;;
15254;SDS011;7730;49.610;11.136;2022-09-12T06:35:22;13.35;;;4.15;;
15254;SDS011;7730;49.610;11.136;2022-09-12T06:37:49;9.95;;;4.43;;
15254;SDS011;7730;49.610;11.136;2022-09-12T06:40:18;9.02;;;4.22;;
15254;SDS011;7730;49.610;11.136;2022-09-12T06:42:45;10.93;;;4.65;;
15254;SDS011;7730;49.610;11.136;2022-09-12T06:45:12;9.90;;;4.80;;
15254;SDS011;7730;49.610;11.136;2022-09-12T06:47:40;11.23;;;4.65;;
15254;SDS011;7730;49.610;11.136;2022-09-12T06:50:07;10.80;;;4.30;;
15254;SDS011;7730;49.610;11.136;2022-09-12T06:52:35;15.82;;;4.68;;
15254;SDS011;7730;49.610;11.136;2022-09-12T06:55:02;12.52;;;5.00;;
15254;SDS011;7730;49.610;11.136;2022-09-12T06:57:31;14.57;;;4.63;;
15254;SDS011;7730;49.610;11.136;2022-09-12T07:00:00;20.80;;;4.68;;
15254;SDS011;7730;49.610;11.136;2022-09-12T07:02:28;11.55;;;4.20;;
15254;SDS011;7730;49.610;11.136;2022-09-12T07:04:55;10.93;;;4.30;;
15254;SDS011;7730;49.610;11.136;2022-09-12T07:07:22;10.23;;;4.55;;
15254;SDS011;7730;49.610;11.136;2022-09-12T07:09:49;10.65;;;4.72;;
15254;SDS011;7730;49.610;11.136;2022-09-12T07:12:16;8.65;;;4.68;;
15254;SDS011;7730;49.610;11.136;2022-09-12T07:14:44;13.70;;;4.28;;
15254;SDS011;7730;49.610;11.136;2022-09-12T07:17:11;15.60;;;4.78;;
15254;SDS011;7730;49.610;11.136;2022-09-12T07:19:38;8.73;;;4.70;;
15254;SDS011;7730;49.610;11.136;2022-09-12T07:22:05;27.42;;;5.05;;
15254;SDS011;7730;49.610;11.136;2022-09-12T07:24:32;12.25;;;5.13;;
15254;SDS011;7730;49.610;11.136;2022-09-12T07:26:59;11.23;;;5.20;;
15254;SDS011;7730;49.610;11.136;2022-09-12T07:29:27;9.25;;;4.90;;
15254;SDS011;7730;49.610;11.136;2022-09-12T07:31:57;11.48;;;5.45;;
15254;SDS011;7730;49.610;11.136;2022-09-12T07:34:26;24.83;;;6.32;;
15254;SDS011;7730;49.610;11.136;2022-09-12T07:36:53;11.63;;;5.87;;
15254;SDS011;7730;49.610;11.136;2022-09-12T07:39:20;11.48;;;5.80;;
15254;SDS011;7730;49.610;11.136;2022-09-12T07:41:47;13.60;;;6.03;;
15254;SDS011;7730;49.610;11.136;2022-09-12T07:44:14;11.45;;;6.13;;
15254;SDS011;7730;49.610;11.136;2022-09-12T07:46:41;14.55;;;5.85;;
15254;SDS011;7730;49.610;11.136;2022-09-12T07:49:11;13.20;;;6.10;;
15254;SDS011;7730;49.610;11.136;2022-09-12T07:51:39;12.57;;;6.32;;
15254;SDS011;7730;49.610;11.136;2022-09-12T07:54:07;11.38;;;6.05;;
15254;SDS011;7730;49.610;11.136;2022-09-12T07:56:35;12.50;;;6.85;;
15254;SDS011;7730;49.610;11.136;2022-09-12T07:59:02;13.20;;;6.47;;
15254;SDS011;7730;49.610;11.136;2022-09-12T08:01:29;15.90;;;6.65;;
15254;SDS011;7730;49.610;11.136;2022-09-12T08:03:56;10.57;;;5.78;;
15254;SDS011;7730;49.610;11.136;2022-09-12T08:06:25;11.93;;;6.20;;
15254;SDS011;7730;49.610;11.136;2022-09-12T08:08:54;11.25;;;6.00;;
15254;SDS011;7730;49.610;11.136;2022-09-12T08:11:22;13.00;;;6.35;;
15254;SDS011;7730;49.610;11.136;2022-09-12T08:13:49;11.85;;;6.05;;
15254;SDS011;7730;49.610;11.136;2022-09-12T08:16:17;11.55;;;5.88;;
15254;SDS011;7730;49.610;11.136;2022-09-12T08:18:45;12.57;;;6.18;;
15254;SDS011;7730;49.610;11.136;2022-09-12T08:21:13;12.10;;;6.00;;
15254;SDS011;7730;49.610;11.136;2022-09-12T08:23:42;12.10;;;5.93;;
15254;SDS011;7730;49.610;11.136;2022-09-12T08:26:10;13.18;;;6.82;;
15254;SDS011;7730;49.610;11.136;2022-09-12T08:28:38;12.25;;;6.63;;
15254;SDS011;7730;49.610;11.136;2022-09-12T08:31:06;12.55;;;6.90;;
15254;SDS011;7730;49.610;11.136;2022-09-12T08:33:33;11.85;;;6.22;;
15254;SDS011;7730;49.610;11.136;2022-09-12T08:36:02;12.40;;;6.70;;
15254;SDS011;7730;49.610;11.136;2022-09-12T08:38:29;13.95;;;7.68;;
15254;SDS011;7730;49.610;11.136;2022-09-12T08:40:59;12.75;;;7.40;;
15254;SDS011;7730;49.610;11.136;2022-09-12T08:43:31;13.13;;;7.30;;
15254;SDS011;7730;49.610;11.136;2022-09-12T08:46:01;13.65;;;7.20;;
15254;SDS011;7730;49.610;11.136;2022-09-12T08:48:31;13.40;;;7.82;;
15254;SDS011;7730;49.610;11.136;2022-09-12T08:50:58;13.75;;;7.78;;
15254;SDS011;7730;49.610;11.136;2022-09-12T08:53:25;13.77;;;7.25;;
15254;SDS011;7730;49.610;11.136;2022-09-12T08:55:55;14.55;;;7.38;;
15254;SDS011;7730;49.610;11.136;2022-09-12T08:58:26;12.75;;;7.68;;
15254;SDS011;7730;49.610;11.136;2022-09-12T09:00:56;13.40;;;7.28;;
15254;SDS011;7730;49.610;11.136;2022-09-12T09:06:09;14.13;;;7.88;;
15254;SDS011;7730;49.610;11.136;2022-09-12T09:08:42;13.00;;;7.57;;
15254;SDS011;7730;49.610;11.136;2022-09-12T09:11:18;15.02;;;7.50;;
15254;SDS011;7730;49.610;11.136;2022-09-12T09:13:51;14.82;;;6.53;;
15254;SDS011;7730;49.610;11.136;2022-09-12T09:16:34;12.40;;;6.75;;
15254;SDS011;7730;49.610;11.136;2022-09-12T09:19:03;12.85;;;6.72;;
15254;SDS011;7730;49.610;11.136;2022-09-12T09:21:32;12.07;;;6.25;;
15254;SDS011;7730;49.610;11.136;2022-09-12T09:24:01;12.50;;;6.82;;
15254;SDS011;7730;49.610;11.136;2022-09-12T09:26:33;11.70;;;5.57;;
15254;SDS011;7730;49.610;11.136;2022-09-12T09:29:06;12.23;;;6.32;;
15254;SDS011;7730;49.610;11.136;2022-09-12T09:31:37;12.57;;;6.78;;
15254;SDS011;7730;49.610;11.136;2022-09-12T09:34:07;13.05;;;6.10;;
15254;SDS011;7730;49.610;11.136;2022-09-12T09:36:39;11.65;;;5.72;;
15254;SDS011;7730;49.610;11.136;2022-09-12T09:39:09;11.80;;;6.15;;
15254;SDS011;7730;49.610;11.136;2022-09-12T09:41:40;13.05;;;6.22;;
15254;SDS011;7730;49.610;11.136;2022-09-12T09:44:13;11.30;;;5.63;;
15254;SDS011;7730;49.610;11.136;2022-09-12T09:46:40;10.27;;;5.57;;
15254;SDS011;7730;49.610;11.136;2022-09-12T09:49:08;11.32;;;5.10;;
15254;SDS011;7730;49.610;11.136;2022-09-12T09:51:39;8.75;;;4.50;;
15254;SDS011;7730;49.610;11.136;2022-09-12T09:54:09;10.23;;;4.60;;
15254;SDS011;7730;49.610;11.136;2022-09-12T09:56:37;10.55;;;4.70;;
15254;SDS011;7730;49.610;11.136;2022-09-12T09:59:09;9.98;;;5.10;;
15254;SDS011;7730;49.610;11.136;2022-09-12T10:01:39;8.50;;;4.50;;
15254;SDS011;7730;49.610;11.136;2022-09-12T10:04:15;10.25;;;4.85;;
15254;SDS011;7730;49.610;11.136;2022-09-12T10:06:43;11.15;;;5.50;;
15254;SDS011;7730;49.610;11.136;2022-09-12T10:09:16;11.48;;;5.90;;
15254;SDS011;7730;49.610;11.136;2022-09-12T10:11:44;11.18;;;5.13;;
15254;SDS011;7730;49.610;11.136;2022-09-12T10:19:57;9.00;;;4.63;;
15254;SDS011;7730;49.610;11.136;2022-09-12T10:22:25;10.32;;;4.80;;
15254;SDS011;7730;49.610;11.136;2022-09-12T10:24:53;9.82;;;4.82;;
15254;SDS011;7730;49.610;11.136;2022-09-12T10:27:23;10.18;;;4.40;;
15254;SDS011;7730;49.610;11.136;2022-09-12T10:29:52;9.90;;;4.40;;
15254;SDS011;7730;49.610;11.136;2022-09-12T10:32:21;9.27;;;4.10;;
15254;SDS011;7730;49.610;11.136;2022-09-12T10:34:51;8.68;;;4.22;;
15254;SDS011;7730;49.610;11.136;2022-09-12T10:37:23;6.95;;;3.58;;
15254;SDS011;7730;49.610;11.136;2022-09-12T10:39:52;8.35;;;3.75;;
15254;SDS011;7730;49.610;11.136;2022-09-12T10:45:14;7.68;;;4.10;;
15254;SDS011;7730;49.610;11.136;2022-09-12T10:47:43;10.43;;;4.60;;
15254;SDS011;7730;49.610;11.136;2022-09-12T10:50:21;10.10;;;4.20;;
15254;SDS011;7730;49.610;11.136;2022-09-12T10:52:51;8.25;;;4.05;;
15254;SDS011;7730;49.610;11.136;2022-09-12T10:55:19;8.75;;;3.42;;
15254;SDS011;7730;49.610;11.136;2022-09-12T10:57:51;7.32;;;3.88;;
15254;SDS011;7730;49.610;11.136;2022-09-12T11:00:20;8.15;;;3.90;;
15254;SDS011;7730;49.610;11.136;2022-09-12T11:02:56;7.90;;;3.67;;
15254;SDS011;7730;49.610;11.136;2022-09-12T11:05:36;7.05;;;3.60;;
15254;SDS011;7730;49.610;11.136;2022-09-12T11:08:09;7.63;;;3.90;;
15254;SDS011;7730;49.610;11.136;2022-09-12T11:10:39;6.78;;;3.60;;
15254;SDS011;7730;49.610;11.136;2022-09-12T11:13:12;7.65;;;3.70;;
15254;SDS011;7730;49.610;11.136;2022-09-12T11:15:46;8.18;;;3.70;;
15254;SDS011;7730;49.610;11.136;2022-09-12T11:18:21;7.97;;;4.00;;
15254;SDS011;7730;49.610;11.136;2022-09-12T11:21:01;8.90;;;3.90;;
15254;SDS011;7730;49.610;11.136;2022-09-12T11:23:59;7.78;;;3.72;;
15254;SDS011;7730;49.610;11.136;2022-09-12T11:26:32;7.60;;;3.67;;
15254;SDS011;7730;49.610;11.136;2022-09-12T11:29:02;9.15;;;3.70;;
15254;SDS011;7730;49.610;11.136;2022-09-12T11:31:40;6.43;;;3.38;;
15254;SDS011;7730;49.610;11.136;2022-09-12T11:34:10;8.45;;;3.08;;
15254;SDS011;7730;49.610;11.136;2022-09-12T11:36:39;7.90;;;3.50;;
15254;SDS011;7730;49.610;11.136;2022-09-12T11:39:13;7.53;;;3.60;;
15254;SDS011;7730;49.610;11.136;2022-09-12T11:41:41;9.80;;;4.40;;
15254;SDS011;7730;49.610;11.136;2022-09-12T11:44:13;7.28;;;3.60;;
15254;SDS011;7730;49.610;11.136;2022-09-12T11:46:42;8.10;;;3.60;;
15254;SDS011;7730;49.610;11.136;2022-09-12T11:49:15;7.63;;;3.60;;
15254;SDS011;7730;49.610;11.136;2022-09-12T11:51:43;7.25;;;3.72;;
15254;SDS011;7730;49.610;11.136;2022-09-12T11:54:17;6.03;;;3.25;;
15254;SDS011;7730;49.610;11.136;2022-09-12T11:56:46;6.60;;;3.22;;
15254;SDS011;7730;49.610;11.136;2022-09-12T11:59:17;7.80;;;4.05;;
15254;SDS011;7730;49.610;11.136;2022-09-12T12:01:50;8.02;;;3.70;;
15254;SDS011;7730;49.610;11.136;2022-09-12T12:04:22;7.75;;;3.92;;
15254;SDS011;7730;49.610;11.136;2022-09-12T12:06:51;8.27;;;3.75;;
15254;SDS011;7730;49.610;11.136;2022-09-12T12:09:21;9.60;;;3.70;;
15254;SDS011;7730;49.610;11.136;2022-09-12T12:11:49;6.68;;;3.30;;
15254;SDS011;7730;49.610;11.136;2022-09-12T12:14:17;8.38;;;3.38;;
15254;SDS011;7730;49.610;11.136;2022-09-12T12:16:46;6.47;;;3.20;;
15254;SDS011;7730;49.610;11.136;2022-09-12T12:19:26;9.02;;;4.68;;
15254;SDS011;7730;49.610;11.136;2022-09-12T12:22:05;6.55;;;3.47;;
15254;SDS011;7730;49.610;11.136;2022-09-12T12:24:34;6.10;;;3.22;;
15254;SDS011;7730;49.610;11.136;2022-09-12T12:27:22;6.53;;;3.33;;
15254;SDS011;7730;49.610;11.136;2022-09-12T12:29:50;7.05;;;3.50;;
15254;SDS011;7730;49.610;11.136;2022-09-12T12:32:18;7.55;;;3.22;;
15254;SDS011;7730;49.610;11.136;2022-09-12T12:34:46;10.48;;;3.70;;
15254;SDS011;7730;49.610;11.136;2022-09-12T12:40:01;6.63;;;3.35;;
15254;SDS011;7730;49.610;11.136;2022-09-12T12:45:48;6.85;;;3.17;;
15254;SDS011;7730;49.610;11.136;2022-09-12T12:48:16;8.93;;;3.28;;
15254;SDS011;7730;49.610;11.136;2022-09-12T12:50:44;6.28;;;3.20;;
15254;SDS011;7730;49.610;11.136;2022-09-12T12:53:16;6.28;;;3.20;;
15254;SDS011;7730;49.610;11.136;2022-09-12T12:55:46;7.00;;;3.47;;
15254;SDS011;7730;49.610;11.136;2022-09-12T12:58:22;7.60;;;2.95;;
15254;SDS011;7730;49.610;11.136;2022-09-12T13:01:00;21.02;;;5.82;;
15254;SDS011;7730;49.610;11.136;2022-09-12T13:03:29;41.28;;;10.73;;
15254;SDS011;7730;49.610;11.136;2022-09-12T13:05:58;24.92;;;7.72;;
15254;SDS011;7730;49.610;11.136;2022-09-12T13:08:27;7.45;;;3.72;;
15254;SDS011;7730;49.610;11.136;2022-09-12T13:10:57;9.00;;;4.03;;
15254;SDS011;7730;49.610;11.136;2022-09-12T13:13:26;9.02;;;3.90;;
15254;SDS011;7730;49.610;11.136;2022-09-12T13:15:54;9.77;;;4.00;;
15254;SDS011;7730;49.610;11.136;2022-09-12T13:18:23;7.15;;;3.40;;
15254;SDS011;7730;49.610;11.136;2022-09-12T13:20:52;9.25;;;3.45;;
15254;SDS011;7730;49.610;11.136;2022-09-12T13:23:20;6.57;;;3.40;;
15254;SDS011;7730;49.610;11.136;2022-09-12T13:25:51;8.88;;;3.70;;
15254;SDS011;7730;49.610;11.136;2022-09-12T13:28:20;8.48;;;3.40;;
15254;SDS011;7730;49.610;11.136;2022-09-12T13:30:47;7.47;;;3.38;;
15254;SDS011;7730;49.610;11.136;2022-09-12T13:33:21;6.68;;;3.45;;
15254;SDS011;7730;49.610;11.136;2022-09-12T13:36:03;6.88;;;3.47;;
15254;SDS011;7730;49.610;11.136;2022-09-12T13:38:36;6.13;;;3.60;;
15254;SDS011;7730;49.610;11.136;2022-09-12T13:41:12;6.38;;;3.20;;
15254;SDS011;7730;49.610;11.136;2022-09-12T13:43:44;5.93;;;3.05;;
15254;SDS011;7730;49.610;11.136;2022-09-12T13:46:12;6.88;;;3.53;;
15254;SDS011;7730;49.610;11.136;2022-09-12T13:48:41;5.78;;;3.00;;
15254;SDS011;7730;49.610;11.136;2022-09-12T13:51:12;6.25;;;3.28;;
15254;SDS011;7730;49.610;11.136;2022-09-12T13:53:45;6.00;;;3.15;;
15254;SDS011;7730;49.610;11.136;2022-09-12T13:56:14;7.05;;;3.45;;
15254;SDS011;7730;49.610;11.136;2022-09-12T13:58:51;16.40;;;4.18;;
15254;SDS011;7730;49.610;11.136;2022-09-12T14:01:19;9.55;;;3.72;;
15254;SDS011;7730;49.610;11.136;2022-09-12T14:03:48;21.70;;;4.20;;
15254;SDS011;7730;49.610;11.136;2022-09-12T14:06:34;7.05;;;3.20;;
15254;SDS011;7730;49.610;11.136;2022-09-12T14:09:06;8.13;;;3.78;;
15254;SDS011;7730;49.610;11.136;2022-09-12T14:11:38;7.03;;;3.55;;
15254;SDS011;7730;49.610;11.136;2022-09-12T14:14:17;6.63;;;3.30;;
15254;SDS011;7730;49.610;11.136;2022-09-12T14:16:45;6.55;;;3.38;;
15254;SDS011;7730;49.610;11.136;2022-09-12T14:19:12;6.20;;;3.30;;
15254;SDS011;7730;49.610;11.136;2022-09-12T14:21:40;7.78;;;3.30;;
15254;SDS011;7730;49.610;11.136;2022-09-12T14:24:08;7.10;;;3.17;;
15254;SDS011;7730;49.610;11.136;2022-09-12T14:26:36;7.75;;;3.55;;
15254;SDS011;7730;49.610;11.136;2022-09-12T14:29:04;7.88;;;3.60;;
15254;SDS011;7730;49.610;11.136;2022-09-12T14:31:34;6.57;;;3.30;;
15254;SDS011;7730;49.610;11.136;2022-09-12T14:34:09;7.13;;;3.58;;
15254;SDS011;7730;49.610;11.136;2022-09-12T14:36:39;7.50;;;3.70;;
15254;SDS011;7730;49.610;11.136;2022-09-12T14:39:06;6.35;;;3.40;;
15254;SDS011;7730;49.610;11.136;2022-09-12T14:41:40;8.02;;;3.40;;
15254;SDS011;7730;49.610;11.136;2022-09-12T14:44:08;6.50;;;3.45;;
15254;SDS011;7730;49.610;11.136;2022-09-12T14:46:37;8.10;;;3.58;;
15254;SDS011;7730;49.610;11.136;2022-09-12T14:49:05;7.80;;;3.65;;
15254;SDS011;7730;49.610;11.136;2022-09-12T14:51:33;8.82;;;3.50;;
15254;SDS011;7730;49.610;11.136;2022-09-12T14:54:01;5.53;;;2.97;;
15254;SDS011;7730;49.610;11.136;2022-09-12T14:56:37;7.90;;;3.28;;
15254;SDS011;7730;49.610;11.136;2022-09-12T15:04:38;7.07;;;3.50;;
15254;SDS011;7730;49.610;11.136;2022-09-12T15:07:12;7.55;;;3.42;;
15254;SDS011;7730;49.610;11.136;2022-09-12T15:09:39;9.25;;;3.30;;
15254;SDS011;7730;49.610;11.136;2022-09-12T15:12:07;7.65;;;3.80;;
15254;SDS011;7730;49.610;11.136;2022-09-12T15:14:34;18.60;;;4.35;;
15254;SDS011;7730;49.610;11.136;2022-09-12T15:17:01;8.07;;;3.20;;
15254;SDS011;7730;49.610;11.136;2022-09-12T15:19:28;6.70;;;3.22;;
15254;SDS011;7730;49.610;11.136;2022-09-12T15:21:57;5.75;;;3.15;;
15254;SDS011;7730;49.610;11.136;2022-09-12T15:24:24;7.88;;;3.40;;
15254;SDS011;7730;49.610;11.136;2022-09-12T15:26:51;7.28;;;3.50;;
15254;SDS011;7730;49.610;11.136;2022-09-12T15:29:18;7.20;;;3.47;;
15254;SDS011;7730;49.610;11.136;2022-09-12T15:31:45;6.78;;;3.20;;